Station Historical Data
 
Daily Summary for October 24, 2014 Units:  English    Metric   Both
« Previous Day
Next Day »
Daily Weekly Monthly Yearly Custom
  Current: High: Low: Average:
Temperature: 45.8 °F 51.5 °F 45.8 °F 48.2 °F
Dew Point: 44.5 °F 47.5 °F 44.5 °F 46.1 °F
Humidity: 95% 95% 86% 92%
Wind Speed: 0.0mph 3.0mph 0.0mph 0.2mph
Wind Gust: 0.0mph 4.0mph - -
WindCalm - - SSE
Pressure: 30.09 in 30.11 in 30.08 in -
Precipitation: 0.00 in      
Historical Graphs
 
 
Tabular Data for October 24, 2014
Time Temperature Dew Point Pressure Wind Wind Speed Wind Gust Humidity Rainfall Rate (Hourly) Conditions
00:04 51.5 °F 47.5 °F 30.11 in Calm   1.0 mph 86% 0.00 in
00:09 51.0 °F 47.3 °F 30.10 in ENE 1.0 mph 1.0 mph 87% 0.00 in
00:14 50.8 °F 47.4 °F 30.10 in Calm   1.0 mph 88% 0.00 in
00:19 50.6 °F 47.2 °F 30.10 in Calm     88% 0.00 in
00:24 50.5 °F 47.1 °F 30.10 in Calm   1.0 mph 88% 0.00 in
00:29 50.4 °F 47.3 °F 30.10 in Calm   1.0 mph 89% 0.00 in
00:34 50.2 °F 47.1 °F 30.10 in Calm     89% 0.00 in
00:39 50.2 °F 47.4 °F 30.11 in Calm   1.0 mph 90% 0.00 in
00:44 50.1 °F 47.3 °F 30.11 in Calm   1.0 mph 90% 0.00 in
00:49 50.1 °F 47.0 °F 30.10 in ESE 3.0 mph 3.0 mph 89% 0.00 in
00:54 50.1 °F 47.0 °F 30.10 in ESE 2.0 mph 2.0 mph 89% 0.00 in
00:59 50.1 °F 47.0 °F 30.09 in East 2.0 mph 4.0 mph 89% 0.00 in
01:04 50.2 °F 47.1 °F 30.10 in West 1.0 mph 1.0 mph 89% 0.00 in
01:09 50.1 °F 47.0 °F 30.10 in Calm     89% 0.00 in
01:14 49.9 °F 46.8 °F 30.09 in East 2.0 mph 2.0 mph 89% 0.00 in
01:19 49.8 °F 47.0 °F 30.09 in Calm   1.0 mph 90% 0.00 in
01:24 49.8 °F 47.0 °F 30.09 in Calm   1.0 mph 90% 0.00 in
01:29 49.6 °F 46.8 °F 30.09 in Calm     90% 0.00 in
01:34 49.4 °F 46.6 °F 30.09 in Calm     90% 0.00 in
01:39 49.2 °F 46.4 °F 30.09 in Calm     90% 0.00 in
01:44 49.1 °F 46.3 °F 30.09 in Calm   1.0 mph 90% 0.00 in
01:49 49.0 °F 46.5 °F 30.10 in SW 1.0 mph 1.0 mph 91% 0.00 in
01:54 48.8 °F 46.0 °F 30.09 in Calm     90% 0.00 in
01:59 48.5 °F 46.0 °F 30.09 in Calm   1.0 mph 91% 0.00 in
02:04 48.3 °F 45.8 °F 30.09 in Calm     91% 0.00 in
02:09 48.0 °F 45.5 °F 30.09 in Calm     91% 0.00 in
02:14 47.8 °F 45.3 °F 30.09 in Calm     91% 0.00 in
02:19 47.5 °F 45.3 °F 30.09 in Calm     92% 0.00 in
02:24 47.5 °F 45.6 °F 30.10 in Calm     93% 0.00 in
02:29 47.5 °F 45.6 °F 30.10 in Calm     93% 0.00 in
02:34 47.4 °F 45.5 °F 30.09 in Calm     93% 0.00 in
02:39 47.2 °F 45.3 °F 30.09 in Calm     93% 0.00 in
02:44 47.1 °F 45.5 °F 30.08 in Calm     94% 0.00 in
02:49 47.0 °F 45.4 °F 30.09 in Calm     94% 0.00 in
02:54 46.9 °F 45.3 °F 30.08 in Calm     94% 0.00 in
02:59 47.1 °F 45.5 °F 30.08 in Calm     94% 0.00 in
03:04 47.2 °F 45.6 °F 30.08 in Calm     94% 0.00 in
03:09 47.2 °F 45.6 °F 30.09 in Calm     94% 0.00 in
03:14 47.2 °F 45.6 °F 30.09 in Calm     94% 0.00 in
03:19 47.3 °F 45.7 °F 30.08 in Calm   1.0 mph 94% 0.00 in
03:24 47.3 °F 45.7 °F 30.08 in Calm     94% 0.00 in
03:29 47.3 °F 45.7 °F 30.09 in Calm     94% 0.00 in
03:34 47.4 °F 46.0 °F 30.09 in Calm     95% 0.00 in
03:39 47.5 °F 46.1 °F 30.09 in Calm     95% 0.00 in
03:45 47.6 °F 46.0 °F 30.09 in Calm     94% 0.00 in
03:49 47.6 °F 46.0 °F 30.09 in Calm     94% 0.00 in
03:55 47.6 °F 46.0 °F 30.09 in Calm     94% 0.00 in
04:00 47.6 °F 46.0 °F 30.09 in Calm     94% 0.00 in
04:05 47.7 °F 46.1 °F 30.09 in Calm     94% 0.00 in
04:10 47.7 °F 46.1 °F 30.09 in Calm     94% 0.00 in
04:15 47.7 °F 46.1 °F 30.08 in Calm     94% 0.00 in
04:20 47.6 °F 46.0 °F 30.08 in Calm     94% 0.00 in
04:25 47.6 °F 46.0 °F 30.08 in Calm     94% 0.00 in
04:30 47.5 °F 45.9 °F 30.09 in Calm     94% 0.00 in
04:35 47.5 °F 45.9 °F 30.09 in Calm     94% 0.00 in
04:40 47.3 °F 45.7 °F 30.09 in WSW 1.0 mph 1.0 mph 94% 0.00 in
04:45 47.0 °F 45.4 °F 30.09 in Calm     94% 0.00 in
04:50 46.8 °F 45.2 °F 30.09 in Calm     94% 0.00 in
04:55 46.7 °F 45.1 °F 30.09 in Calm     94% 0.00 in
05:00 46.6 °F 45.0 °F 30.09 in Calm     94% 0.00 in
05:05 46.5 °F 44.9 °F 30.09 in Calm     94% 0.00 in
05:10 46.5 °F 45.2 °F 30.09 in Calm     95% 0.00 in
05:15 46.3 °F 45.0 °F 30.09 in Calm     95% 0.00 in
05:20 46.1 °F 44.8 °F 30.09 in Calm     95% 0.00 in
05:25 46.0 °F 44.7 °F 30.09 in Calm     95% 0.00 in
05:30 45.8 °F 44.5 °F 30.09 in Calm     95% 0.00 in
Compliments of Weather Underground